Archival Weather

Chicago O'Hare International

Chicago, Illinois (KORD)

Report from: Saturday, March 31, 2012 5:51 AM CDT
Current time: Tuesday, July 16, 2024 9:30 AM CDT

Current weather – Weather history – Daily summaries
Weather forecast

Temperature3.9°C (39.0°F)
Wind chill-0.3°C (31.4°F)
Dew point1.1°C (34.0°F)
Winds 11 kts (5.7 m/s, 12.7 mph) East-Northeast (60°)
Visibility10 mi. (16.1 km)
Clouds Ceiling: Overcast 1,000 ft. (305 m)
Altimeter29.97 in.Hg (1015 mB)
Relative humidity82 %
Density altitude-1,319 ft. (-402 m)
Sea-level pressure101.5 kPa (1015 mB, 29.98 in.Hg)
Remarks System requires maintenance
Automated weather observing station with precipitation discriminator
Flight conditions Marginal Visual Meteorological Conditions
Raw data2012-03-31 10:51 KORD 311051Z 06011KT 10SM OVC010 04/01 A2997 RMK AO2 SLP154 T00390011 $
An error has occurred. This application may no longer respond until reloaded. Reload 🗙